Time;durP1;ratioP1;P1;durP2;ratioP2;P2;SDS_P1;SDS_P2;PMS_P1;PMS_P2;Temp;Humidity;BMP_temperature;BMP_pressure;BME280_temperature;BME280_humidity;BME280_pressure;Samples;Min_cycle;Max_cycle;Signal;HPM_P1;HPM_P2
2022/03/13 00:00:21;;;;;;;7.27;4.23;;;;;;;;;;4994684;28;20406;-73
2022/03/13 00:02:47;;;;;;;7.20;3.90;;;;;;;;;;4995198;28;20484;-72
2022/03/13 00:05:17;;;;;;;8.10;4.30;;;;;;;;;;4995024;28;20553;-73
2022/03/13 00:07:47;;;;;;;8.17;3.83;;;;;;;;;;4993954;28;20550;-74
2022/03/13 00:10:14;;;;;;;7.07;4.00;;;;;;;;;;4994566;28;20914;-73
2022/03/13 00:12:41;;;;;;;7.90;4.23;;;;;;;;;;4994802;28;20429;-74
2022/03/13 00:15:10;;;;;;;7.77;4.30;;;;;;;;;;4994819;28;20925;-75
2022/03/13 00:17:36;;;;;;;8.67;4.30;;;;;;;;;;4994829;28;20509;-73
2022/03/13 00:20:04;;;;;;;9.80;4.93;;;;;;;;;;4995808;28;20414;-73
2022/03/13 00:22:30;;;;;;;6.63;4.50;;;;;;;;;;4994797;28;20414;-74
2022/03/13 00:24:57;;;;;;;6.10;4.00;;;;;;;;;;4994625;28;20462;-73
2022/03/13 00:27:23;;;;;;;6.60;4.10;;;;;;;;;;4994662;28;20775;-74
2022/03/13 00:29:49;;;;;;;6.87;4.43;;;;;;;;;;4994105;28;20410;-74
2022/03/13 00:32:15;;;;;;;8.23;3.93;;;;;;;;;;4994341;28;20463;-72
2022/03/13 00:34:41;;;;;;;7.00;4.47;;;;;;;;;;4994442;28;20419;-73
2022/03/13 00:37:07;;;;;;;7.33;4.43;;;;;;;;;;4994585;28;20854;-72
2022/03/13 00:39:34;;;;;;;8.43;4.57;;;;;;;;;;4994035;28;20411;-74
2022/03/13 00:42:00;;;;;;;8.40;4.30;;;;;;;;;;4994400;28;20442;-73
2022/03/13 00:44:26;;;;;;;8.93;4.67;;;;;;;;;;4994272;28;20461;-74
2022/03/13 00:46:52;;;;;;;7.97;4.80;;;;;;;;;;4994387;28;20414;-74
2022/03/13 00:49:18;;;;;;;5.20;3.50;;;;;;;;;;4995256;28;20437;-74
2022/03/13 00:51:44;;;;;;;6.20;4.30;;;;;;;;;;4994130;28;20430;-74
2022/03/13 00:54:11;;;;;;;5.93;4.10;;;;;;;;;;4994165;28;20411;-74
2022/03/13 00:56:37;;;;;;;8.07;4.60;;;;;;;;;;4994227;28;20410;-73
2022/03/13 00:59:03;;;;;;;8.27;4.67;;;;;;;;;;4993680;28;20434;-73
2022/03/13 01:01:29;;;;;;;8.07;4.37;;;;;;;;;;4993964;28;20426;-73
2022/03/13 01:03:55;;;;;;;8.47;4.50;;;;;;;;;;4993976;28;20462;-75
2022/03/13 01:06:22;;;;;;;6.93;4.17;;;;;;;;;;4993984;28;20430;-73
2022/03/13 01:08:50;;;;;;;7.63;4.50;;;;;;;;;;4993456;28;20410;-74
2022/03/13 01:11:18;;;;;;;9.90;4.73;;;;;;;;;;4993662;28;20522;-73
2022/03/13 01:13:44;;;;;;;6.70;4.10;;;;;;;;;;4993625;28;20430;-71
2022/03/13 01:16:16;;;;;;;7.90;4.67;;;;;;;;;;4993770;28;20426;-71
2022/03/13 01:18:43;;;;;;;9.07;5.00;;;;;;;;;;4993048;28;20767;-71
2022/03/13 01:21:10;;;;;;;10.33;5.27;;;;;;;;;;4993247;28;20442;-73
2022/03/13 01:23:37;;;;;;;7.00;4.23;;;;;;;;;;4993406;28;20457;-71
2022/03/13 01:26:21;;;;;;;5.90;4.03;;;;;;;;;;4993426;28;20422;-70
2022/03/13 01:28:50;;;;;;;6.67;4.43;;;;;;;;;;4993145;28;20415;-70
2022/03/13 01:31:17;;;;;;;7.00;4.37;;;;;;;;;;4993359;28;20438;-71
2022/03/13 01:33:43;;;;;;;6.97;4.00;;;;;;;;;;4993472;28;20493;-72
2022/03/13 01:36:09;;;;;;;8.03;4.67;;;;;;;;;;4993413;28;20426;-70
2022/03/13 01:38:35;;;;;;;8.20;5.03;;;;;;;;;;4993095;28;20415;-72
2022/03/13 01:41:01;;;;;;;8.33;5.00;;;;;;;;;;4993090;28;20442;-72
2022/03/13 01:43:30;;;;;;;8.77;5.03;;;;;;;;;;4993282;28;20541;-72
2022/03/13 01:45:57;;;;;;;10.30;4.13;;;;;;;;;;4993232;28;20414;-73
2022/03/13 01:48:23;;;;;;;9.60;5.17;;;;;;;;;;4993058;28;20942;-73
2022/03/13 01:50:49;;;;;;;11.10;4.40;;;;;;;;;;4992913;28;20435;-71
2022/03/13 01:53:16;;;;;;;10.07;5.20;;;;;;;;;;4993280;28;20933;-74
2022/03/13 01:55:42;;;;;;;7.30;4.20;;;;;;;;;;4993019;28;20422;-75
2022/03/13 01:58:08;;;;;;;6.80;4.53;;;;;;;;;;4992954;28;20419;-74
2022/03/13 02:00:34;;;;;;;13.47;5.30;;;;;;;;;;4992353;28;20449;-73
2022/03/13 02:03:00;;;;;;;7.20;4.67;;;;;;;;;;4992751;28;20418;-71
2022/03/13 02:05:29;;;;;;;10.33;4.40;;;;;;;;;;4992843;28;20446;-74
2022/03/13 02:07:56;;;;;;;9.00;4.57;;;;;;;;;;4992803;28;20407;-74
2022/03/13 02:10:22;;;;;;;7.23;4.60;;;;;;;;;;4992293;28;20461;-73
2022/03/13 02:12:48;;;;;;;8.00;5.37;;;;;;;;;;4992697;28;20426;-73
2022/03/13 02:15:14;;;;;;;9.43;5.67;;;;;;;;;;4992748;28;20415;-74
2022/03/13 02:17:40;;;;;;;7.33;4.50;;;;;;;;;;4992601;28;20418;-73
2022/03/13 02:20:12;;;;;;;7.53;4.57;;;;;;;;;;4992169;28;20490;-75
2022/03/13 02:22:39;;;;;;;8.37;4.40;;;;;;;;;;4992685;28;20410;-70
2022/03/13 02:25:05;;;;;;;7.13;4.70;;;;;;;;;;4992571;28;20973;-74
2022/03/13 02:27:33;;;;;;;11.17;5.53;;;;;;;;;;4993699;28;20411;-73
2022/03/13 02:29:59;;;;;;;10.30;5.03;;;;;;;;;;4992033;28;20414;-71
2022/03/13 02:32:25;;;;;;;8.93;5.37;;;;;;;;;;4991831;28;20453;-72
2022/03/13 02:34:51;;;;;;;6.70;4.87;;;;;;;;;;4992463;28;20410;-71
2022/03/13 02:37:20;;;;;;;11.23;4.97;;;;;;;;;;4992426;28;20411;-74
2022/03/13 02:39:46;;;;;;;9.93;5.33;;;;;;;;;;4991993;28;20418;-74
2022/03/13 02:42:12;;;;;;;11.40;5.60;;;;;;;;;;4992248;28;20791;-72
2022/03/13 02:44:38;;;;;;;7.50;5.00;;;;;;;;;;4993728;28;20804;-71
2022/03/13 02:47:06;;;;;;;9.83;4.80;;;;;;;;;;4992307;28;20414;-73
2022/03/13 02:49:32;;;;;;;9.63;5.20;;;;;;;;;;4991905;28;20438;-74
2022/03/13 02:52:03;;;;;;;9.20;5.80;;;;;;;;;;4992158;28;20427;-73
2022/03/13 02:54:30;;;;;;;7.87;5.27;;;;;;;;;;4992298;28;20509;-74
2022/03/13 02:56:56;;;;;;;7.50;5.00;;;;;;;;;;4992328;28;20476;-72
2022/03/13 02:59:22;;;;;;;8.47;5.40;;;;;;;;;;4991865;28;20739;-75
2022/03/13 03:01:49;;;;;;;9.73;5.27;;;;;;;;;;4992227;28;20938;-73
2022/03/13 03:04:15;;;;;;;7.70;5.23;;;;;;;;;;4992352;28;20485;-74
2022/03/13 03:06:50;;;;;;;7.50;4.70;;;;;;;;;;4992425;28;20419;-75
2022/03/13 03:09:17;;;;;;;7.80;4.70;;;;;;;;;;4991970;28;20801;-75
2022/03/13 03:11:44;;;;;;;7.87;4.90;;;;;;;;;;4992093;28;20487;-72
2022/03/13 03:14:11;;;;;;;7.73;4.73;;;;;;;;;;4992198;28;20434;-70
2022/03/13 03:16:37;;;;;;;8.20;5.50;;;;;;;;;;4992177;28;20429;-74
2022/03/13 03:19:04;;;;;;;10.13;5.27;;;;;;;;;;4991666;28;20430;-72
2022/03/13 03:21:30;;;;;;;10.87;6.37;;;;;;;;;;4992044;28;20434;-74
2022/03/13 03:23:56;;;;;;;6.90;4.90;;;;;;;;;;4991968;28;20450;-74
2022/03/13 03:26:22;;;;;;;7.83;5.50;;;;;;;;;;4992033;28;20416;-74
2022/03/13 03:28:49;;;;;;;11.67;5.43;;;;;;;;;;4991749;28;20468;-74
2022/03/13 03:31:15;;;;;;;8.40;5.17;;;;;;;;;;4992118;28;20468;-72
2022/03/13 03:33:41;;;;;;;8.33;5.90;;;;;;;;;;4992093;28;20516;-75
2022/03/13 03:36:07;;;;;;;7.53;5.13;;;;;;;;;;4991984;28;20426;-75
2022/03/13 03:38:33;;;;;;;11.43;5.27;;;;;;;;;;4991625;28;20429;-75
2022/03/13 03:40:59;;;;;;;10.83;5.20;;;;;;;;;;4991593;28;20435;-74
2022/03/13 03:43:25;;;;;;;8.83;5.13;;;;;;;;;;4994162;28;20476;-73
2022/03/13 03:45:51;;;;;;;6.73;4.50;;;;;;;;;;4995375;28;20418;-74
2022/03/13 03:48:20;;;;;;;11.07;5.10;;;;;;;;;;4995462;28;20406;-73
2022/03/13 03:50:46;;;;;;;8.40;4.77;;;;;;;;;;4995098;28;20431;-73
2022/03/13 03:53:12;;;;;;;8.20;4.87;;;;;;;;;;4996662;28;20390;-74
2022/03/13 03:55:38;;;;;;;12.37;4.77;;;;;;;;;;4995475;28;20398;-74
2022/03/13 03:58:04;;;;;;;10.13;6.00;;;;;;;;;;4995262;28;20406;-73
2022/03/13 04:00:30;;;;;;;7.53;5.23;;;;;;;;;;4994913;28;20425;-73
2022/03/13 04:02:56;;;;;;;9.93;5.80;;;;;;;;;;4995177;28;20801;-74
2022/03/13 04:05:23;;;;;;;9.47;5.50;;;;;;;;;;4995038;28;20953;-73
2022/03/13 04:07:49;;;;;;;10.20;5.50;;;;;;;;;;4995059;28;20899;-73
2022/03/13 04:10:15;;;;;;;9.30;5.70;;;;;;;;;;4994648;28;20410;-73
2022/03/13 04:12:41;;;;;;;10.83;6.07;;;;;;;;;;4994871;28;20430;-73
2022/03/13 04:15:08;;;;;;;14.53;5.83;;;;;;;;;;4995090;28;20925;-73
2022/03/13 04:17:35;;;;;;;17.53;6.50;;;;;;;;;;4995030;28;20458;-74
2022/03/13 04:20:05;;;;;;;9.37;5.40;;;;;;;;;;4994485;28;20415;-73
2022/03/13 04:22:31;;;;;;;7.70;5.23;;;;;;;;;;4995022;28;20413;-73
2022/03/13 04:24:57;;;;;;;12.37;5.90;;;;;;;;;;4994711;28;20450;-73
2022/03/13 04:27:23;;;;;;;17.93;5.20;;;;;;;;;;4994615;28;20414;-72
2022/03/13 04:29:49;;;;;;;9.23;4.70;;;;;;;;;;4994274;28;20407;-72
2022/03/13 04:32:22;;;;;;;9.73;5.20;;;;;;;;;;4994679;28;20938;-71
2022/03/13 04:34:49;;;;;;;8.43;5.20;;;;;;;;;;4994600;28;20513;-74
2022/03/13 04:37:16;;;;;;;9.17;4.60;;;;;;;;;;4994417;28;20422;-72
2022/03/13 04:39:42;;;;;;;13.80;5.60;;;;;;;;;;4994033;28;20429;-73
2022/03/13 04:42:08;;;;;;;9.67;5.60;;;;;;;;;;4994204;28;20434;-71
2022/03/13 04:44:34;;;;;;;18.23;5.57;;;;;;;;;;4994307;28;20465;-72
2022/03/13 04:47:01;;;;;;;10.57;5.27;;;;;;;;;;4994067;28;20418;-75
2022/03/13 04:49:27;;;;;;;9.73;5.37;;;;;;;;;;4993828;28;20426;-74
2022/03/13 04:51:53;;;;;;;7.47;5.10;;;;;;;;;;4994049;28;20525;-73
2022/03/13 04:54:19;;;;;;;9.67;5.93;;;;;;;;;;4993424;28;20406;-72
2022/03/13 04:56:46;;;;;;;10.20;5.50;;;;;;;;;;4994143;28;20497;-73
2022/03/13 04:59:12;;;;;;;8.20;5.03;;;;;;;;;;4993693;28;20419;-73
2022/03/13 05:01:39;;;;;;;7.73;5.17;;;;;;;;;;4993948;28;20760;-73
2022/03/13 05:04:06;;;;;;;8.63;5.30;;;;;;;;;;4993835;28;20815;-73
2022/03/13 05:06:35;;;;;;;10.20;5.30;;;;;;;;;;4994036;28;20501;-71
2022/03/13 05:09:01;;;;;;;9.53;6.10;;;;;;;;;;4993513;28;20407;-73
2022/03/13 05:11:27;;;;;;;9.17;4.80;;;;;;;;;;4993839;28;20427;-70
2022/03/13 05:13:54;;;;;;;12.20;6.07;;;;;;;;;;4993898;28;20437;-72
2022/03/13 05:16:20;;;;;;;11.37;6.03;;;;;;;;;;4993990;28;20419;-72
2022/03/13 05:18:46;;;;;;;9.00;5.17;;;;;;;;;;4993493;28;20406;-73
2022/03/13 05:21:12;;;;;;;9.90;5.37;;;;;;;;;;4993595;28;20450;-72
2022/03/13 05:23:38;;;;;;;11.80;6.07;;;;;;;;;;4993757;28;20449;-71
2022/03/13 05:26:04;;;;;;;9.83;5.60;;;;;;;;;;4993673;28;20470;-71
2022/03/13 05:28:30;;;;;;;7.53;5.10;;;;;;;;;;4993320;28;20413;-72
2022/03/13 05:30:56;;;;;;;8.07;4.57;;;;;;;;;;4993429;28;20485;-71
2022/03/13 05:33:23;;;;;;;7.50;4.90;;;;;;;;;;4994983;28;20550;-72
2022/03/13 05:35:49;;;;;;;10.07;5.23;;;;;;;;;;4993506;28;20417;-74
2022/03/13 05:38:15;;;;;;;9.47;5.70;;;;;;;;;;4993551;28;20779;-73
2022/03/13 05:40:41;;;;;;;8.03;5.13;;;;;;;;;;4992907;28;20442;-74
2022/03/13 05:43:07;;;;;;;12.23;5.20;;;;;;;;;;4993271;28;20415;-71
2022/03/13 05:45:33;;;;;;;7.73;4.93;;;;;;;;;;4993309;28;20411;-73
2022/03/13 05:48:01;;;;;;;10.90;6.47;;;;;;;;;;4993236;28;20415;-71
2022/03/13 05:50:28;;;;;;;8.40;5.33;;;;;;;;;;4994070;28;20422;-72
2022/03/13 05:52:56;;;;;;;9.17;5.60;;;;;;;;;;4993317;28;20854;-73
2022/03/13 05:55:23;;;;;;;10.00;5.70;;;;;;;;;;4993365;28;20425;-72
2022/03/13 05:57:49;;;;;;;9.53;6.07;;;;;;;;;;4993304;28;20446;-72
2022/03/13 06:00:16;;;;;;;9.40;5.73;;;;;;;;;;4992672;28;20505;-73
2022/03/13 06:02:42;;;;;;;8.67;4.97;;;;;;;;;;4993133;28;20411;-72
2022/03/13 06:05:12;;;;;;;9.40;5.70;;;;;;;;;;4992752;28;20470;-72
2022/03/13 06:07:39;;;;;;;9.40;5.10;;;;;;;;;;4992451;28;20570;-73
2022/03/13 06:10:06;;;;;;;10.40;5.60;;;;;;;;;;4992485;28;20422;-74
2022/03/13 06:12:33;;;;;;;9.43;5.47;;;;;;;;;;4992861;28;20767;-72
2022/03/13 06:14:59;;;;;;;9.80;5.93;;;;;;;;;;4992986;28;20430;-71
2022/03/13 06:17:25;;;;;;;10.27;5.77;;;;;;;;;;4992806;28;20752;-73
2022/03/13 06:19:52;;;;;;;9.40;5.60;;;;;;;;;;4992504;28;20415;-72
2022/03/13 06:22:19;;;;;;;9.17;5.60;;;;;;;;;;4992765;28;20451;-72
2022/03/13 06:24:45;;;;;;;12.43;6.20;;;;;;;;;;4992485;28;20468;-72
2022/03/13 06:27:12;;;;;;;7.33;5.07;;;;;;;;;;4992566;28;20895;-72
2022/03/13 06:29:39;;;;;;;7.63;5.10;;;;;;;;;;4992225;28;20953;-72
2022/03/13 06:32:05;;;;;;;8.80;5.83;;;;;;;;;;4992632;28;20441;-72
2022/03/13 06:34:31;;;;;;;9.80;5.80;;;;;;;;;;4994070;28;20465;-70
2022/03/13 06:36:57;;;;;;;9.90;5.60;;;;;;;;;;4993990;28;20407;-71
2022/03/13 06:39:23;;;;;;;9.40;5.50;;;;;;;;;;4992115;28;20976;-72
2022/03/13 06:41:50;;;;;;;11.67;6.30;;;;;;;;;;4993763;28;20427;-71
2022/03/13 06:44:16;;;;;;;11.90;5.97;;;;;;;;;;4992353;28;20986;-73
2022/03/13 06:46:42;;;;;;;11.40;6.13;;;;;;;;;;4992110;28;20411;-72
2022/03/13 06:49:09;;;;;;;8.57;5.70;;;;;;;;;;4991988;28;20975;-70
2022/03/13 06:51:38;;;;;;;10.30;6.07;;;;;;;;;;4991388;28;20935;-70
2022/03/13 06:54:04;;;;;;;7.53;5.10;;;;;;;;;;4990096;28;21102;-71
2022/03/13 06:56:30;;;;;;;15.10;6.07;;;;;;;;;;4990190;28;20502;-73
2022/03/13 06:59:03;;;;;;;9.63;5.87;;;;;;;;;;4989905;28;20403;-73
2022/03/13 07:01:29;;;;;;;20.80;5.70;;;;;;;;;;4990201;28;20488;-73
2022/03/13 07:03:55;;;;;;;8.20;5.40;;;;;;;;;;4990032;28;20517;-74
2022/03/13 07:06:21;;;;;;;10.50;6.50;;;;;;;;;;4990079;28;20426;-75
2022/03/13 07:08:47;;;;;;;9.57;6.17;;;;;;;;;;4991756;28;20411;-73
2022/03/13 07:11:15;;;;;;;12.20;5.47;;;;;;;;;;4991976;28;20426;-74
2022/03/13 07:13:44;;;;;;;8.07;5.47;;;;;;;;;;4992109;28;20442;-73
2022/03/13 07:16:10;;;;;;;8.90;5.87;;;;;;;;;;4992119;28;20534;-73
2022/03/13 07:18:36;;;;;;;10.87;6.27;;;;;;;;;;4994584;28;20418;-73
2022/03/13 07:21:02;;;;;;;8.57;5.47;;;;;;;;;;4997172;28;20434;-73
2022/03/13 07:23:29;;;;;;;12.00;6.80;;;;;;;;;;4995678;28;20418;-73
2022/03/13 07:25:55;;;;;;;11.07;6.53;;;;;;;;;;4995825;28;20452;-73
2022/03/13 07:28:21;;;;;;;9.70;6.27;;;;;;;;;;4995534;28;20414;-72
2022/03/13 07:30:47;;;;;;;10.87;6.13;;;;;;;;;;4995252;28;20430;-73
2022/03/13 07:33:13;;;;;;;9.40;6.23;;;;;;;;;;4995519;28;20406;-72
2022/03/13 07:35:40;;;;;;;12.00;6.97;;;;;;;;;;4995565;28;20946;-71
2022/03/13 07:38:06;;;;;;;10.23;6.57;;;;;;;;;;4995395;28;20441;-72
2022/03/13 07:40:32;;;;;;;10.30;6.50;;;;;;;;;;4995069;28;20442;-71
2022/03/13 07:42:59;;;;;;;14.43;6.37;;;;;;;;;;4995711;28;20418;-72
2022/03/13 07:45:26;;;;;;;13.63;6.70;;;;;;;;;;4995407;28;20469;-71
2022/03/13 07:47:57;;;;;;;12.07;7.70;;;;;;;;;;4995477;28;20411;-71
2022/03/13 07:50:23;;;;;;;12.33;7.40;;;;;;;;;;4995005;28;20422;-71
2022/03/13 07:52:50;;;;;;;11.07;7.17;;;;;;;;;;4995458;28;20426;-71
2022/03/13 07:55:16;;;;;;;11.00;6.20;;;;;;;;;;4995509;28;20422;-71
2022/03/13 07:57:42;;;;;;;13.97;7.13;;;;;;;;;;4995368;28;20425;-71
2022/03/13 08:00:10;;;;;;;10.30;7.10;;;;;;;;;;4994692;28;20446;-71
2022/03/13 08:02:37;;;;;;;10.23;7.00;;;;;;;;;;4995139;28;20923;-72
2022/03/13 08:05:03;;;;;;;8.23;6.43;;;;;;;;;;4995069;28;20558;-69
2022/03/13 08:07:29;;;;;;;11.50;6.30;;;;;;;;;;4995026;28;20476;-70
2022/03/13 08:09:55;;;;;;;11.53;7.57;;;;;;;;;;4994650;28;20933;-69
2022/03/13 08:12:21;;;;;;;11.60;6.93;;;;;;;;;;4994916;28;20460;-72
2022/03/13 08:14:49;;;;;;;14.27;7.57;;;;;;;;;;4994916;28;20453;-74
2022/03/13 08:17:16;;;;;;;11.47;6.80;;;;;;;;;;4994958;28;20504;-71
2022/03/13 08:19:42;;;;;;;16.27;7.73;;;;;;;;;;4994377;28;20410;-71
2022/03/13 08:22:08;;;;;;;12.67;7.53;;;;;;;;;;4994471;28;20954;-72
2022/03/13 08:24:34;;;;;;;11.40;7.60;;;;;;;;;;4994594;28;20485;-72
2022/03/13 08:27:00;;;;;;;13.00;7.20;;;;;;;;;;4994894;28;20493;-71
2022/03/13 08:29:26;;;;;;;11.20;6.57;;;;;;;;;;4993195;28;20422;-71
2022/03/13 08:31:52;;;;;;;11.10;6.90;;;;;;;;;;4994654;28;20462;-71
2022/03/13 08:34:19;;;;;;;10.70;6.40;;;;;;;;;;4994684;28;20462;-70
2022/03/13 08:36:48;;;;;;;10.40;6.70;;;;;;;;;;4994758;28;20441;-71
2022/03/13 08:39:14;;;;;;;12.30;6.27;;;;;;;;;;4994226;28;20505;-71
2022/03/13 08:41:41;;;;;;;16.70;7.63;;;;;;;;;;4994387;28;20465;-72
2022/03/13 08:44:08;;;;;;;17.33;6.40;;;;;;;;;;4994457;28;20500;-71
2022/03/13 08:46:34;;;;;;;18.43;7.33;;;;;;;;;;4994469;28;20517;-71
2022/03/13 08:49:01;;;;;;;13.10;6.77;;;;;;;;;;4994131;28;20410;-72
2022/03/13 08:51:27;;;;;;;17.43;6.47;;;;;;;;;;4994204;28;20466;-72
2022/03/13 08:53:54;;;;;;;11.87;6.30;;;;;;;;;;4994307;28;20657;-72
2022/03/13 08:56:20;;;;;;;23.70;7.27;;;;;;;;;;4995602;28;20493;-74
2022/03/13 08:58:47;;;;;;;12.60;6.93;;;;;;;;;;4993976;28;20414;-71
2022/03/13 09:01:14;;;;;;;14.60;7.37;;;;;;;;;;4993948;28;20803;-73
2022/03/13 09:03:41;;;;;;;11.97;6.67;;;;;;;;;;4994079;28;20458;-73
2022/03/13 09:06:07;;;;;;;11.37;6.23;;;;;;;;;;4994154;28;20423;-74
2022/03/13 09:08:32;;;;;;;10.80;5.80;;;;;;;;;;4993756;28;20498;-73
2022/03/13 09:10:59;;;;;;;10.47;7.00;;;;;;;;;;4993884;28;20867;-74
2022/03/13 09:13:25;;;;;;;12.47;6.80;;;;;;;;;;4993901;28;20748;-72
2022/03/13 09:15:51;;;;;;;9.13;6.30;;;;;;;;;;4993825;28;20446;-72
2022/03/13 09:18:18;;;;;;;12.23;5.67;;;;;;;;;;4993879;28;20421;-74
2022/03/13 09:20:44;;;;;;;8.93;6.03;;;;;;;;;;4993333;28;20562;-72
2022/03/13 09:23:10;;;;;;;8.43;6.00;;;;;;;;;;4993765;28;20429;-73
2022/03/13 09:25:36;;;;;;;10.80;5.83;;;;;;;;;;4993677;28;20505;-71
2022/03/13 09:28:03;;;;;;;8.30;6.03;;;;;;;;;;4993871;28;20418;-71
2022/03/13 09:30:29;;;;;;;7.87;5.73;;;;;;;;;;4993174;28;20819;-73
2022/03/13 09:32:55;;;;;;;9.97;6.47;;;;;;;;;;4993638;28;20418;-72
2022/03/13 09:35:21;;;;;;;8.97;5.63;;;;;;;;;;4993605;28;20505;-71
2022/03/13 09:37:49;;;;;;;9.00;5.70;;;;;;;;;;4993517;28;20422;-73
2022/03/13 09:40:17;;;;;;;8.27;5.07;;;;;;;;;;4992912;28;20426;-72
2022/03/13 09:42:43;;;;;;;9.50;5.20;;;;;;;;;;4993555;28;20419;-72
2022/03/13 09:45:09;;;;;;;7.63;5.20;;;;;;;;;;4993164;28;20469;-71
2022/03/13 09:47:37;;;;;;;7.80;5.30;;;;;;;;;;4993321;28;20178;-72
2022/03/13 09:50:03;;;;;;;8.37;4.80;;;;;;;;;;4991890;28;20402;-73
2022/03/13 09:52:31;;;;;;;7.03;4.90;;;;;;;;;;4993203;28;20509;-71
2022/03/13 09:54:57;;;;;;;6.33;4.50;;;;;;;;;;4993195;28;20476;-70
2022/03/13 09:57:23;;;;;;;5.67;4.40;;;;;;;;;;4993224;28;20417;-72
2022/03/13 09:59:50;;;;;;;7.27;5.03;;;;;;;;;;4992645;28;20414;-72
2022/03/13 10:02:16;;;;;;;7.83;4.90;;;;;;;;;;4993067;28;20434;-72
2022/03/13 10:04:42;;;;;;;6.93;5.40;;;;;;;;;;4994215;28;20556;-72
2022/03/13 10:07:08;;;;;;;6.60;4.60;;;;;;;;;;4993075;28;20414;-72
2022/03/13 10:09:35;;;;;;;5.60;4.60;;;;;;;;;;4992479;28;20402;-72
2022/03/13 10:12:19;;;;;;;7.43;4.03;;;;;;;;;;4992639;28;20453;-73
2022/03/13 10:15:05;;;;;;;5.80;4.10;;;;;;;;;;4992745;28;20766;-72
2022/03/13 10:17:33;;;;;;;5.67;4.30;;;;;;;;;;4992708;28;20416;-73
2022/03/13 10:20:14;;;;;;;6.20;3.90;;;;;;;;;;4992381;28;20410;-75
2022/03/13 10:22:41;;;;;;;5.27;3.97;;;;;;;;;;4992785;28;21002;-74
2022/03/13 10:25:07;;;;;;;5.40;4.37;;;;;;;;;;4992563;28;21024;-74
2022/03/13 10:27:34;;;;;;;5.80;4.00;;;;;;;;;;4992550;28;20418;-72
2022/03/13 10:30:05;;;;;;;6.60;4.23;;;;;;;;;;4992242;28;20410;-73
2022/03/13 10:32:31;;;;;;;6.57;3.80;;;;;;;;;;4992645;28;20442;-73
2022/03/13 10:34:58;;;;;;;6.50;4.63;;;;;;;;;;4992524;28;20418;-73
2022/03/13 10:37:35;;;;;;;5.53;4.20;;;;;;;;;;4992545;28;20422;-73
2022/03/13 10:40:06;;;;;;;7.00;3.67;;;;;;;;;;4992030;28;20924;-73
2022/03/13 10:42:32;;;;;;;5.40;4.40;;;;;;;;;;4992538;28;20452;-72
2022/03/13 10:45:03;;;;;;;4.83;3.77;;;;;;;;;;4992424;28;20453;-72
2022/03/13 10:47:31;;;;;;;5.20;4.03;;;;;;;;;;4992468;28;20831;-72
2022/03/13 10:49:57;;;;;;;5.67;3.87;;;;;;;;;;4991974;28;20418;-71
2022/03/13 10:52:26;;;;;;;5.53;3.60;;;;;;;;;;4994889;28;20902;-71
2022/03/13 10:54:57;;;;;;;6.27;3.73;;;;;;;;;;4998809;28;20178;-72
2022/03/13 10:57:23;;;;;;;5.10;3.90;;;;;;;;;;4999009;28;20417;-73
2022/03/13 11:00:12;;;;;;;5.30;3.50;;;;;;;;;;4998449;28;20925;-73
2022/03/13 11:02:39;;;;;;;4.80;3.47;;;;;;;;;;4998940;28;20421;-75
2022/03/13 11:05:05;;;;;;;8.00;3.67;;;;;;;;;;4994484;28;20959;-74
2022/03/13 11:07:31;;;;;;;5.70;3.00;;;;;;;;;;4996455;28;20937;-74
2022/03/13 11:09:58;;;;;;;5.50;4.00;;;;;;;;;;4996004;28;20915;-73
2022/03/13 11:12:24;;;;;;;7.17;3.23;;;;;;;;;;4995626;28;20449;-72
2022/03/13 11:14:53;;;;;;;4.50;3.30;;;;;;;;;;4996270;28;20450;-71
2022/03/13 11:17:20;;;;;;;5.40;3.53;;;;;;;;;;4995738;28;20500;-75
2022/03/13 11:19:50;;;;;;;5.07;3.30;;;;;;;;;;4995223;28;20418;-73
2022/03/13 11:22:20;;;;;;;6.00;3.40;;;;;;;;;;4995842;28;20430;-72
2022/03/13 11:24:46;;;;;;;7.80;3.07;;;;;;;;;;4996067;28;20462;-71
2022/03/13 11:27:13;;;;;;;6.30;3.40;;;;;;;;;;4996179;28;20433;-72
2022/03/13 11:29:52;;;;;;;4.10;3.10;;;;;;;;;;4995373;28;20906;-73
2022/03/13 11:32:48;;;;;;;5.80;3.63;;;;;;;;;;4995750;28;20438;-72
2022/03/13 11:35:14;;;;;;;5.10;3.80;;;;;;;;;;4987732;28;20497;-73
2022/03/13 11:37:41;;;;;;;5.47;3.80;;;;;;;;;;4995970;28;20433;-68
2022/03/13 11:40:09;;;;;;;6.83;3.50;;;;;;;;;;4995653;28;21145;-69
2022/03/13 11:42:47;;;;;;;4.93;3.40;;;;;;;;;;4995309;28;20422;-69
2022/03/13 11:45:30;;;;;;;5.70;3.77;;;;;;;;;;4995369;28;20823;-68
2022/03/13 11:48:16;;;;;;;4.97;3.20;;;;;;;;;;4994659;28;20437;-69
2022/03/13 11:50:50;;;;;;;6.47;2.60;;;;;;;;;;4995189;28;20497;-69
2022/03/13 11:53:17;;;;;;;4.13;2.67;;;;;;;;;;4995494;28;20889;-69
2022/03/13 11:56:02;;;;;;;4.20;3.00;;;;;;;;;;4995266;28;20406;-69
2022/03/13 11:58:48;;;;;;;4.40;2.93;;;;;;;;;;4995132;28;20410;-69
2022/03/13 12:01:21;;;;;;;7.87;3.30;;;;;;;;;;4977330;28;20503;-69
2022/03/13 12:04:03;;;;;;;4.13;2.97;;;;;;;;;;4994616;28;20481;-68
2022/03/13 12:06:39;;;;;;;4.33;2.80;;;;;;;;;;4992301;28;20403;-68
2022/03/13 12:09:09;;;;;;;3.53;2.50;;;;;;;;;;4991959;28;20740;-68
2022/03/13 12:11:39;;;;;;;5.10;2.73;;;;;;;;;;4993373;28;21202;-68
2022/03/13 12:14:09;;;;;;;8.10;2.90;;;;;;;;;;4992713;28;20414;-68
2022/03/13 12:16:35;;;;;;;4.30;2.80;;;;;;;;;;4992047;28;20469;-68
2022/03/13 12:19:01;;;;;;;6.07;3.20;;;;;;;;;;4992255;28;20822;-68
2022/03/13 12:21:28;;;;;;;4.47;3.10;;;;;;;;;;4991650;28;20442;-68
2022/03/13 12:23:56;;;;;;;4.93;2.40;;;;;;;;;;4993897;28;20799;-68
2022/03/13 12:26:34;;;;;;;5.03;2.80;;;;;;;;;;4991949;28;20886;-68
2022/03/13 12:29:00;;;;;;;4.23;2.93;;;;;;;;;;4992045;28;20903;-68
2022/03/13 12:31:27;;;;;;;4.40;3.00;;;;;;;;;;4991663;28;20423;-65
2022/03/13 12:33:54;;;;;;;10.20;2.87;;;;;;;;;;4991953;28;20428;-67
2022/03/13 12:36:23;;;;;;;5.83;2.60;;;;;;;;;;4991863;28;20420;-67
2022/03/13 12:38:49;;;;;;;7.43;2.73;;;;;;;;;;4991738;28;20973;-67
2022/03/13 12:41:16;;;;;;;3.50;2.60;;;;;;;;;;4991590;28;20438;-67
2022/03/13 12:43:48;;;;;;;3.57;2.43;;;;;;;;;;4991609;28;20418;-67
2022/03/13 12:46:18;;;;;;;4.40;2.67;;;;;;;;;;4991408;28;20457;-67
2022/03/13 12:48:51;;;;;;;7.23;3.70;;;;;;;;;;4991237;28;20807;-67
2022/03/13 12:51:38;;;;;;;5.90;2.50;;;;;;;;;;4991500;28;20454;-67
2022/03/13 12:54:08;;;;;;;5.00;2.80;;;;;;;;;;4991774;28;20767;-68
2022/03/13 12:56:36;;;;;;;6.60;2.70;;;;;;;;;;4990981;28;20480;-68
2022/03/13 12:59:02;;;;;;;5.70;2.83;;;;;;;;;;4991436;28;20530;-67
2022/03/13 13:01:28;;;;;;;4.47;2.60;;;;;;;;;;4991201;28;20753;-68
2022/03/13 13:03:55;;;;;;;4.33;2.80;;;;;;;;;;4991638;28;20986;-68
2022/03/13 13:06:28;;;;;;;5.53;2.70;;;;;;;;;;4991196;28;20501;-67
2022/03/13 13:08:54;;;;;;;6.93;2.63;;;;;;;;;;4991057;28;20415;-68
2022/03/13 13:11:35;;;;;;;5.90;3.20;;;;;;;;;;4991316;28;20462;-68
2022/03/13 13:14:01;;;;;;;7.13;2.60;;;;;;;;;;4991519;28;20826;-67
2022/03/13 13:16:31;;;;;;;4.37;2.87;;;;;;;;;;4990889;28;20438;-67
2022/03/13 13:19:01;;;;;;;3.33;2.30;;;;;;;;;;4992376;28;20410;-70
2022/03/13 13:21:40;;;;;;;6.57;2.93;;;;;;;;;;4993457;28;20422;-68
2022/03/13 13:24:22;;;;;;;5.00;2.50;;;;;;;;;;4993808;28;20488;-68
2022/03/13 13:26:48;;;;;;;4.70;2.70;;;;;;;;;;4993842;28;20901;-68
2022/03/13 13:29:14;;;;;;;4.83;2.80;;;;;;;;;;4992711;28;20419;-68
2022/03/13 13:31:40;;;;;;;6.57;2.73;;;;;;;;;;4993089;28;20529;-68
2022/03/13 13:34:13;;;;;;;4.13;2.50;;;;;;;;;;4992558;28;20457;-67
2022/03/13 13:36:40;;;;;;;5.30;3.40;;;;;;;;;;4992440;28;20879;-68
2022/03/13 13:39:06;;;;;;;7.30;2.70;;;;;;;;;;5014149;28;20421;-68
2022/03/13 13:41:36;;;;;;;6.07;3.57;;;;;;;;;;5012985;28;20439;-78
2022/03/13 13:44:03;;;;;;;5.47;2.70;;;;;;;;;;5014191;28;20460;-78
2022/03/13 13:46:33;;;;;;;6.00;3.30;;;;;;;;;;5013057;28;20424;-78
2022/03/13 13:48:59;;;;;;;4.90;2.80;;;;;;;;;;5013661;28;20732;-71
2022/03/13 13:51:29;;;;;;;5.27;2.80;;;;;;;;;;5014085;28;20471;-71
2022/03/13 13:54:14;;;;;;;8.33;3.10;;;;;;;;;;5004325;28;20469;-78
2022/03/13 13:56:41;;;;;;;5.23;3.17;;;;;;;;;;5001607;28;20413;-78
2022/03/13 13:59:24;;;;;;;5.97;3.53;;;;;;;;;;5012133;28;20421;-76
2022/03/13 14:02:16;;;;;;;5.47;3.53;;;;;;;;;;4994919;28;20919;-78
2022/03/13 14:04:42;;;;;;;9.80;3.63;;;;;;;;;;5003994;28;20453;-79
2022/03/13 14:07:09;;;;;;;3.90;2.70;;;;;;;;;;4974954;28;20414;-77
2022/03/13 14:09:35;;;;;;;4.33;2.63;;;;;;;;;;4973250;28;20407;-79
2022/03/13 14:12:02;;;;;;;5.77;3.60;;;;;;;;;;4973462;28;20451;-78
2022/03/13 14:14:28;;;;;;;5.97;3.27;;;;;;;;;;4973491;28;20462;-70
2022/03/13 14:16:55;;;;;;;7.13;3.33;;;;;;;;;;4974672;28;20410;-79
2022/03/13 14:19:22;;;;;;;5.73;3.30;;;;;;;;;;4973043;28;20478;-78
2022/03/13 14:21:49;;;;;;;5.37;2.80;;;;;;;;;;4973201;28;20439;-78
2022/03/13 14:24:15;;;;;;;9.80;3.57;;;;;;;;;;4974481;28;20454;-78
2022/03/13 14:26:41;;;;;;;6.20;3.53;;;;;;;;;;4972507;28;20413;-77
2022/03/13 14:29:08;;;;;;;4.77;2.80;;;;;;;;;;4972359;28;20523;-80
2022/03/13 14:31:34;;;;;;;6.40;3.83;;;;;;;;;;4973242;28;20796;-79
2022/03/13 14:34:00;;;;;;;6.50;3.70;;;;;;;;;;4973184;28;20415;-68
2022/03/13 14:36:26;;;;;;;6.13;3.67;;;;;;;;;;4973406;28;20420;-80
2022/03/13 14:38:52;;;;;;;13.83;3.63;;;;;;;;;;4973581;28;20502;-75
2022/03/13 14:41:20;;;;;;;8.23;4.33;;;;;;;;;;4992448;28;20430;-74
2022/03/13 14:43:46;;;;;;;12.43;4.37;;;;;;;;;;4992123;28;20449;-76